createdAt,value
2018-06-23T00:00:16.788Z,91.10
2018-06-23T00:02:44.500Z,91.80
2018-06-23T00:05:12.439Z,90.70
2018-06-23T00:07:39.857Z,92.10
2018-06-23T00:10:06.961Z,92.30
2018-06-23T00:12:34.212Z,89.80
2018-06-23T00:15:01.155Z,88.60
2018-06-23T00:17:28.277Z,89.80
2018-06-23T00:19:55.226Z,90.20
2018-06-23T00:22:22.253Z,90.50
2018-06-23T00:24:49.272Z,89.30
2018-06-23T00:27:16.462Z,90.10
2018-06-23T00:29:43.440Z,90.20
2018-06-23T00:32:10.400Z,89.40
2018-06-23T00:34:37.579Z,89.20
2018-06-23T00:37:04.520Z,89.90
2018-06-23T00:39:31.465Z,89.60
2018-06-23T00:41:58.457Z,88.30
2018-06-23T00:44:25.420Z,89.10
2018-06-23T00:46:52.340Z,90.00
2018-06-23T00:49:19.368Z,90.20
2018-06-23T00:51:46.519Z,90.50
2018-06-23T00:54:13.456Z,90.50
2018-06-23T00:56:40.400Z,90.60
2018-06-23T00:59:41.903Z,90.00
2018-06-23T01:02:09.158Z,89.80
2018-06-23T01:04:36.267Z,90.90
2018-06-23T01:07:03.249Z,89.50
2018-06-23T01:09:30.196Z,89.90
2018-06-23T01:11:57.273Z,90.10
2018-06-23T01:14:24.227Z,89.20
2018-06-23T01:16:51.154Z,89.80
2018-06-23T01:19:18.285Z,89.00
2018-06-23T01:21:45.299Z,88.90
2018-06-23T01:24:12.278Z,87.80
2018-06-23T01:26:39.217Z,88.60
2018-06-23T01:29:06.247Z,88.50
2018-06-23T01:31:33.176Z,86.20
2018-06-23T01:34:00.155Z,86.40
2018-06-23T01:36:27.125Z,86.20
2018-06-23T01:38:54.102Z,84.60
2018-06-23T01:41:21.058Z,84.80
2018-06-23T01:43:48.017Z,83.80
2018-06-23T01:46:14.983Z,83.30
2018-06-23T01:48:41.937Z,83.50
2018-06-23T01:51:08.948Z,83.50
2018-06-23T01:53:35.956Z,84.30
2018-06-23T01:56:02.941Z,82.80
2018-06-23T01:58:30.084Z,83.00
2018-06-23T02:00:57.054Z,83.00
2018-06-23T02:03:24.029Z,82.60
2018-06-23T02:05:51.018Z,82.90
2018-06-23T02:08:18.001Z,82.90
2018-06-23T02:10:47.033Z,82.80
2018-06-23T02:13:13.949Z,82.60
2018-06-23T02:15:46.579Z,81.10
2018-06-23T02:19:21.097Z,79.60
2018-06-23T02:21:53.826Z,79.90
2018-06-23T02:24:26.577Z,79.60
2018-06-23T02:26:59.741Z,78.50
2018-06-23T02:29:32.740Z,78.80
2018-06-23T02:32:05.640Z,79.70
2018-06-23T02:34:38.449Z,77.40
2018-06-23T02:37:05.469Z,77.30
2018-06-23T02:39:32.522Z,76.40
2018-06-23T02:41:59.641Z,76.10
2018-06-23T02:44:26.586Z,77.20
2018-06-23T02:46:53.520Z,76.00
2018-06-23T02:49:20.454Z,77.10
2018-06-23T02:51:47.369Z,76.10
2018-06-23T02:54:14.331Z,76.60
2018-06-23T02:56:41.278Z,76.40
2018-06-23T02:59:08.244Z,75.60
2018-06-23T03:01:35.166Z,74.50
2018-06-23T03:04:02.091Z,75.10
2018-06-23T03:06:29.037Z,77.20
2018-06-23T03:08:56.085Z,76.00
2018-06-23T03:11:23.033Z,74.50
2018-06-23T03:13:49.976Z,74.40
2018-06-23T03:16:16.897Z,72.80
2018-06-23T03:18:43.872Z,73.70
2018-06-23T03:21:10.809Z,74.10
2018-06-23T03:23:37.786Z,73.40
2018-06-23T03:26:04.747Z,74.20
2018-06-23T03:28:31.692Z,75.60
2018-06-23T03:30:58.659Z,74.90
2018-06-23T03:33:25.591Z,74.60
2018-06-23T03:35:52.537Z,74.20
2018-06-23T03:38:20.069Z,75.40
2018-06-23T03:40:47.025Z,75.80
2018-06-23T03:43:13.951Z,76.00
2018-06-23T03:45:40.878Z,75.00
2018-06-23T03:48:07.832Z,76.30
2018-06-23T03:50:34.776Z,76.10
2018-06-23T03:53:01.692Z,76.30
2018-06-23T03:55:28.711Z,75.40
2018-06-23T03:57:55.669Z,75.80
2018-06-23T04:00:22.626Z,75.80
2018-06-23T04:02:49.569Z,75.70
2018-06-23T04:05:16.515Z,76.20
2018-06-23T04:07:43.462Z,74.50
2018-06-23T04:10:10.406Z,74.00
2018-06-23T04:12:37.360Z,72.60
2018-06-23T04:15:04.705Z,72.50
2018-06-23T04:17:31.651Z,72.40
2018-06-23T04:19:58.608Z,72.10
2018-06-23T04:22:25.537Z,71.30
2018-06-23T04:24:52.490Z,71.70
2018-06-23T04:27:19.422Z,71.90
2018-06-23T04:29:46.352Z,70.10
2018-06-23T04:32:13.316Z,71.10
2018-06-23T04:34:40.247Z,72.20
2018-06-23T04:37:07.171Z,73.40
2018-06-23T04:39:34.088Z,72.80
2018-06-23T04:42:00.996Z,73.50
2018-06-23T04:44:27.908Z,74.50
2018-06-23T04:46:54.836Z,73.90
2018-06-23T04:49:21.731Z,73.80
2018-06-23T04:51:48.639Z,74.00
2018-06-23T04:54:15.576Z,74.00
2018-06-23T04:56:42.510Z,73.20
2018-06-23T04:59:09.429Z,74.90
2018-06-23T05:01:36.369Z,75.90
2018-06-23T05:04:03.280Z,74.70
2018-06-23T05:06:30.208Z,74.30
2018-06-23T05:08:57.150Z,74.40
2018-06-23T05:11:24.091Z,75.00
2018-06-23T05:13:51.021Z,75.20
2018-06-23T05:16:17.987Z,73.90
2018-06-23T05:18:44.952Z,75.20
2018-06-23T05:21:11.909Z,76.00
2018-06-23T05:23:38.841Z,75.80
2018-06-23T05:26:05.884Z,73.50
2018-06-23T05:28:32.768Z,72.30
2018-06-23T05:30:59.742Z,71.80
2018-06-23T05:33:26.661Z,74.10
2018-06-23T05:35:53.593Z,74.60
2018-06-23T05:38:20.555Z,74.30
2018-06-23T05:40:47.478Z,75.40
2018-06-23T05:43:14.445Z,75.50
2018-06-23T05:45:41.426Z,75.00
2018-06-23T05:48:08.763Z,74.00
2018-06-23T05:50:36.502Z,71.80
2018-06-23T05:53:03.705Z,70.30
2018-06-23T05:55:30.656Z,70.10
2018-06-23T05:57:57.668Z,68.70
2018-06-23T06:00:24.633Z,68.90
2018-06-23T06:02:51.637Z,65.80
2018-06-23T06:05:18.622Z,65.90
2018-06-23T06:07:45.608Z,66.40
2018-06-23T06:10:12.564Z,68.00
2018-06-23T06:12:39.529Z,70.70
2018-06-23T06:15:06.479Z,69.20
2018-06-23T06:17:35.475Z,69.90
2018-06-23T06:20:03.594Z,69.70
2018-06-23T06:22:31.844Z,70.50
2018-06-23T06:24:58.784Z,71.80
2018-06-23T06:27:25.810Z,71.80
2018-06-23T06:29:53.388Z,71.80
2018-06-23T06:32:20.360Z,70.90
2018-06-23T06:34:47.315Z,70.30
2018-06-23T06:37:14.252Z,70.80
2018-06-23T06:39:41.376Z,71.10
2018-06-23T06:42:08.331Z,71.70
2018-06-23T06:44:35.333Z,71.60
2018-06-23T06:47:02.287Z,71.20
2018-06-23T06:49:29.406Z,71.10
2018-06-23T06:51:56.368Z,75.70
2018-06-23T06:54:23.295Z,80.30
2018-06-23T06:56:50.718Z,87.00
2018-06-23T06:59:18.380Z,89.00
2018-06-23T07:01:45.344Z,88.10
2018-06-23T07:04:12.268Z,90.00
2018-06-23T07:06:39.219Z,99.90
2018-06-23T07:09:09.247Z,99.90
2018-06-23T07:11:36.215Z,99.90
2018-06-23T07:14:03.833Z,99.90
2018-06-23T07:16:30.807Z,99.90
2018-06-23T07:18:57.733Z,99.90
2018-06-23T07:21:24.781Z,99.90
2018-06-23T07:23:51.847Z,99.90
2018-06-23T07:26:18.671Z,99.90
2018-06-23T07:28:45.633Z,99.90
2018-06-23T07:31:12.575Z,99.90
2018-06-23T07:33:39.533Z,99.90
2018-06-23T07:36:06.507Z,99.90
2018-06-23T07:38:33.457Z,99.90
2018-06-23T07:41:00.416Z,99.90
2018-06-23T07:43:27.393Z,99.90
2018-06-23T07:45:54.341Z,99.90
2018-06-23T07:48:21.265Z,99.90
2018-06-23T07:50:48.231Z,99.90
2018-06-23T07:53:15.185Z,99.90
2018-06-23T07:55:42.162Z,99.90
2018-06-23T07:58:09.179Z,99.90
2018-06-23T08:00:36.164Z,99.90
2018-06-23T08:03:03.351Z,99.90
2018-06-23T08:05:30.391Z,99.90
2018-06-23T08:07:57.339Z,99.90
2018-06-23T08:10:24.347Z,99.90
2018-06-23T08:12:51.625Z,99.90
2018-06-23T08:15:18.603Z,99.90
2018-06-23T08:17:45.617Z,99.90
2018-06-23T08:20:12.659Z,99.90
2018-06-23T08:22:39.649Z,98.10
2018-06-23T08:25:06.742Z,99.50
2018-06-23T08:27:33.711Z,98.90
2018-06-23T08:30:00.677Z,99.90
2018-06-23T08:32:27.667Z,99.80
2018-06-23T08:34:54.638Z,98.30
2018-06-23T08:37:21.927Z,97.10
2018-06-23T08:39:48.905Z,96.00
2018-06-23T08:42:15.887Z,98.10
2018-06-23T08:44:42.823Z,98.40
2018-06-23T08:47:09.883Z,99.00
2018-06-23T08:49:36.868Z,99.60
2018-06-23T08:52:03.958Z,99.90
2018-06-23T08:54:31.072Z,94.50
2018-06-23T08:56:58.513Z,91.80
2018-06-23T08:59:25.493Z,89.20
2018-06-23T09:01:52.870Z,87.50
2018-06-23T09:04:20.483Z,88.00
2018-06-23T09:06:47.480Z,88.20
2018-06-23T09:09:14.421Z,85.00
2018-06-23T09:11:42.159Z,82.20
2018-06-23T09:14:09.650Z,80.20
2018-06-23T09:16:37.362Z,80.20
2018-06-23T09:19:04.768Z,74.40
2018-06-23T09:21:31.814Z,78.30
2018-06-23T09:23:58.927Z,73.10
2018-06-23T09:26:26.009Z,76.30
2018-06-23T09:28:52.958Z,74.10
2018-06-23T09:31:19.976Z,77.10
2018-06-23T09:33:46.959Z,73.30
2018-06-23T09:36:13.963Z,72.40
2018-06-23T09:38:40.937Z,72.80
2018-06-23T09:41:08.018Z,73.90
2018-06-23T09:43:34.985Z,72.10
2018-06-23T09:46:02.021Z,73.50
2018-06-23T09:48:29.083Z,72.60
2018-06-23T09:50:56.040Z,70.70
2018-06-23T09:53:23.028Z,72.10
2018-06-23T09:55:50.002Z,71.80
2018-06-23T09:58:17.077Z,71.80
2018-06-23T10:00:44.168Z,73.50
2018-06-23T10:03:11.336Z,75.10
2018-06-23T10:05:38.287Z,75.40
2018-06-23T10:08:05.352Z,75.20
2018-06-23T10:10:32.454Z,75.60
2018-06-23T10:12:59.452Z,77.90
2018-06-23T10:15:26.479Z,80.70
2018-06-23T10:17:53.548Z,77.40
2018-06-23T10:20:20.614Z,74.00
2018-06-23T10:22:47.831Z,69.70
2018-06-23T10:25:14.976Z,69.10
2018-06-23T10:27:42.007Z,66.50
2018-06-23T10:30:09.064Z,63.40
2018-06-23T10:32:36.247Z,59.70
2018-06-23T10:35:03.308Z,58.50
2018-06-23T10:37:30.334Z,57.90
2018-06-23T10:39:57.387Z,56.80
2018-06-23T10:42:24.363Z,56.80
2018-06-23T10:44:51.315Z,54.50
2018-06-23T10:47:18.423Z,56.80
2018-06-23T10:49:45.562Z,57.20
2018-06-23T10:52:12.538Z,55.80
2018-06-23T10:54:39.508Z,53.80
2018-06-23T10:57:06.466Z,53.60
2018-06-23T10:59:33.417Z,54.20
2018-06-23T11:02:00.448Z,51.90
2018-06-23T11:04:27.484Z,50.10
2018-06-23T11:09:21.710Z,42.20
2018-06-23T11:11:48.715Z,44.30
2018-06-23T11:14:15.890Z,45.10
2018-06-23T11:16:42.852Z,45.70
2018-06-23T11:19:09.934Z,46.00
2018-06-23T11:21:36.952Z,47.30
2018-06-23T11:24:04.165Z,47.20
2018-06-23T11:26:31.413Z,48.80
2018-06-23T11:28:58.431Z,49.40
2018-06-23T11:31:25.523Z,49.50
2018-06-23T11:33:52.698Z,50.30
2018-06-23T11:36:19.714Z,48.10
2018-06-23T11:38:46.724Z,45.50
2018-06-23T11:41:14.682Z,43.80
2018-06-23T11:43:41.848Z,43.70
2018-06-23T11:46:08.836Z,44.60
2018-06-23T11:48:35.796Z,44.00
2018-06-23T11:51:02.984Z,44.10
2018-06-23T11:53:30.295Z,45.00
2018-06-23T11:55:57.294Z,45.70
2018-06-23T11:58:24.260Z,45.40
2018-06-23T12:00:51.247Z,43.60
2018-06-23T12:03:18.488Z,42.90
2018-06-23T12:05:45.751Z,41.20
2018-06-23T12:08:12.728Z,40.70
2018-06-23T12:10:40.008Z,41.90
2018-06-23T12:13:07.205Z,42.40
2018-06-23T12:15:34.228Z,41.80
2018-06-23T12:20:28.321Z,40.90
2018-06-23T12:30:16.740Z,47.60
2018-06-23T12:32:43.883Z,47.30
2018-06-23T12:35:10.871Z,47.50
2018-06-23T12:37:37.952Z,49.30
2018-06-23T12:42:32.378Z,50.00
2018-06-23T12:45:00.063Z,49.80
2018-06-23T12:47:27.210Z,50.50
2018-06-23T12:49:54.465Z,53.20
2018-06-23T12:52:21.449Z,51.50
2018-06-23T12:54:48.459Z,51.20
2018-06-23T12:57:15.440Z,52.40
2018-06-23T12:59:42.557Z,51.30
2018-06-23T13:02:09.816Z,52.00
2018-06-23T13:04:36.791Z,52.70
2018-06-23T13:07:03.768Z,53.30
2018-06-23T13:09:30.723Z,53.60
2018-06-23T13:11:57.813Z,53.80
2018-06-23T13:14:24.904Z,53.40
2018-06-23T13:16:51.889Z,54.70
2018-06-23T13:19:18.903Z,55.10
2018-06-23T13:21:46.469Z,55.40
2018-06-23T13:24:13.479Z,57.60
2018-06-23T13:26:40.462Z,61.10
2018-06-23T13:29:07.420Z,67.60
2018-06-23T13:31:34.446Z,70.80
2018-06-23T13:34:01.468Z,72.70
2018-06-23T13:36:28.445Z,76.30
2018-06-23T13:38:55.607Z,75.70
2018-06-23T13:41:22.761Z,75.40
2018-06-23T13:43:50.770Z,75.70
2018-06-23T13:46:17.861Z,77.80
2018-06-23T13:48:44.949Z,77.30
2018-06-23T13:51:11.975Z,78.00
2018-06-23T13:53:38.921Z,77.00
2018-06-23T13:56:06.038Z,74.80
2018-06-23T13:58:33.514Z,69.40
2018-06-23T14:01:00.607Z,61.80
2018-06-23T14:03:27.655Z,59.40
2018-06-23T14:05:54.835Z,61.60
2018-06-23T14:08:21.934Z,61.30
2018-06-23T14:10:48.988Z,61.20
2018-06-23T14:13:16.956Z,60.20
2018-06-23T14:15:44.664Z,61.10
2018-06-23T14:18:11.709Z,61.40
2018-06-23T14:20:38.910Z,60.70
2018-06-23T14:23:05.915Z,61.20
2018-06-23T14:25:32.921Z,61.40
2018-06-23T14:28:00.068Z,63.00
2018-06-23T14:30:27.164Z,61.90
2018-06-23T14:32:54.120Z,62.00
2018-06-23T14:35:21.118Z,63.20
2018-06-23T14:37:48.084Z,63.60
2018-06-23T14:42:42.181Z,63.10
2018-06-23T14:45:09.119Z,64.30
2018-06-23T14:47:36.365Z,64.00
2018-06-23T14:50:03.406Z,62.80
2018-06-23T14:52:30.428Z,63.50
2018-06-23T14:55:04.197Z,62.90
2018-06-23T14:57:31.181Z,62.70
2018-06-23T14:59:58.123Z,63.10
2018-06-23T15:02:25.093Z,65.00
2018-06-23T15:04:52.098Z,83.00
2018-06-23T15:07:20.916Z,99.90
2018-06-23T15:09:59.600Z,99.90
2018-06-23T15:12:38.220Z,99.90
2018-06-23T15:15:05.205Z,99.90
2018-06-23T15:17:32.166Z,99.90
2018-06-23T15:19:59.280Z,99.90
2018-06-23T15:22:26.238Z,99.90
2018-06-23T15:24:53.175Z,99.80
2018-06-23T15:27:20.160Z,98.00
2018-06-23T15:29:47.128Z,96.90
2018-06-23T15:32:14.075Z,99.90
2018-06-23T15:34:41.108Z,99.90
2018-06-23T15:37:08.117Z,99.90
2018-06-23T15:39:35.113Z,99.90
2018-06-23T15:42:02.146Z,99.90
2018-06-23T15:44:29.113Z,99.90
2018-06-23T15:46:56.122Z,99.90
2018-06-23T15:49:23.061Z,99.90
2018-06-23T15:51:50.003Z,99.90
2018-06-23T15:54:17.027Z,99.90
2018-06-23T15:56:44.047Z,99.90
2018-06-23T15:59:11.019Z,99.90
2018-06-23T16:01:38.041Z,99.90
2018-06-23T16:04:04.987Z,99.90
2018-06-23T16:06:31.974Z,99.90
2018-06-23T16:08:58.976Z,99.90
2018-06-23T16:11:25.906Z,99.90
2018-06-23T16:13:52.867Z,99.90
2018-06-23T16:16:19.836Z,99.90
2018-06-23T16:18:47.196Z,99.90
2018-06-23T16:21:14.240Z,99.90
2018-06-23T16:23:41.490Z,99.90
2018-06-23T16:26:08.435Z,99.90
2018-06-23T16:28:35.422Z,99.90
2018-06-23T16:31:02.445Z,99.90
2018-06-23T16:33:29.464Z,99.90
2018-06-23T16:35:56.470Z,99.90
2018-06-23T16:38:23.451Z,99.90
2018-06-23T16:40:50.413Z,99.90
2018-06-23T16:43:18.563Z,99.90
2018-06-23T16:45:45.531Z,99.90
2018-06-23T16:48:12.486Z,99.90
2018-06-23T16:50:39.486Z,99.90
2018-06-23T16:53:06.456Z,99.90
2018-06-23T16:55:33.420Z,99.90
2018-06-23T16:58:00.432Z,99.30
2018-06-23T17:00:27.469Z,99.90
2018-06-23T17:02:54.463Z,99.90
2018-06-23T17:05:21.485Z,99.90
2018-06-23T17:07:48.792Z,99.90
2018-06-23T17:10:15.894Z,99.90
2018-06-23T17:12:42.848Z,99.90
2018-06-23T17:15:09.898Z,99.90
2018-06-23T17:17:36.847Z,99.90
2018-06-23T17:20:03.839Z,98.40
2018-06-23T17:22:30.808Z,98.10
2018-06-23T17:24:57.776Z,96.90
2018-06-23T17:27:24.744Z,95.90
2018-06-23T17:29:51.750Z,94.90
2018-06-23T17:32:18.849Z,94.60
2018-06-23T17:34:45.891Z,93.60
2018-06-23T17:37:12.865Z,95.80
2018-06-23T17:39:39.886Z,95.90
2018-06-23T17:42:06.872Z,93.70
2018-06-23T17:44:33.845Z,94.30
2018-06-23T17:47:00.822Z,95.40
2018-06-23T17:49:34.807Z,96.10
2018-06-23T17:52:01.748Z,97.20
2018-06-23T17:54:28.686Z,97.80
2018-06-23T17:56:55.672Z,98.20
2018-06-23T17:59:22.674Z,99.10
2018-06-23T18:01:49.713Z,98.80
2018-06-23T18:04:16.742Z,99.80
2018-06-23T18:06:43.787Z,99.40
2018-06-23T18:09:10.990Z,98.90
2018-06-23T18:11:38.427Z,99.90
2018-06-23T18:14:05.605Z,99.90
2018-06-23T18:16:32.617Z,99.90
2018-06-23T18:18:59.727Z,99.90
2018-06-23T18:21:26.752Z,99.90
2018-06-23T18:23:53.759Z,99.90
2018-06-23T18:26:21.555Z,99.90
2018-06-23T18:28:48.571Z,99.90
2018-06-23T18:31:15.578Z,99.90
2018-06-23T18:33:42.721Z,99.90
2018-06-23T18:36:09.714Z,99.90
2018-06-23T18:38:36.986Z,99.90
2018-06-23T18:41:04.098Z,99.90
2018-06-23T18:43:31.076Z,99.90
2018-06-23T18:45:58.060Z,99.90
2018-06-23T18:48:25.085Z,99.90
2018-06-23T18:50:52.402Z,99.90
2018-06-23T18:53:19.364Z,99.90
2018-06-23T18:55:46.315Z,99.90
2018-06-23T18:58:13.536Z,99.90
2018-06-23T19:00:40.701Z,99.90
2018-06-23T19:03:07.707Z,99.90
2018-06-23T19:05:35.064Z,99.90
2018-06-23T19:08:02.065Z,99.90
2018-06-23T19:10:29.042Z,99.90
2018-06-23T19:12:56.275Z,99.90
2018-06-23T19:15:23.401Z,99.90
2018-06-23T19:17:50.355Z,99.90
2018-06-23T19:20:17.436Z,99.90
2018-06-23T19:22:44.446Z,99.90
2018-06-23T19:25:11.448Z,99.90
2018-06-23T19:27:38.464Z,99.90
2018-06-23T19:30:05.649Z,99.90
2018-06-23T19:32:32.640Z,99.90
2018-06-23T19:34:59.644Z,99.90
2018-06-23T19:37:26.888Z,99.90
2018-06-23T19:39:53.994Z,99.90
2018-06-23T19:42:20.937Z,99.90
2018-06-23T19:44:47.885Z,99.90
2018-06-23T19:47:14.942Z,99.90
2018-06-23T19:49:42.264Z,99.90
2018-06-23T19:52:09.245Z,99.90
2018-06-23T19:54:36.308Z,99.90
2018-06-23T19:57:04.120Z,99.90
2018-06-23T19:59:31.405Z,99.90
2018-06-23T20:01:58.368Z,99.90
2018-06-23T20:04:25.734Z,99.90
2018-06-23T20:06:52.631Z,99.90
2018-06-23T20:09:19.563Z,99.90
2018-06-23T20:11:46.924Z,99.90
2018-06-23T20:14:13.876Z,99.90
2018-06-23T20:16:40.878Z,99.90
2018-06-23T20:19:08.676Z,99.90
2018-06-23T20:21:35.758Z,99.90
2018-06-23T20:24:02.777Z,99.90
2018-06-23T20:26:30.134Z,99.90
2018-06-23T20:28:57.153Z,99.90
2018-06-23T20:31:24.229Z,99.90
2018-06-23T20:33:51.189Z,99.90
2018-06-23T20:36:18.144Z,99.90
2018-06-23T20:38:45.297Z,99.90
2018-06-23T20:41:12.244Z,99.90
2018-06-23T20:43:39.260Z,99.90
2018-06-23T20:46:06.265Z,99.90
2018-06-23T20:48:33.568Z,99.90
2018-06-23T20:51:00.556Z,99.90
2018-06-23T20:53:27.702Z,99.90
2018-06-23T20:55:55.119Z,99.90
2018-06-23T20:58:22.110Z,99.90
2018-06-23T21:00:49.058Z,99.90
2018-06-23T21:03:16.055Z,99.90
2018-06-23T21:05:43.090Z,99.90
2018-06-23T21:08:10.855Z,99.90
2018-06-23T21:10:41.118Z,99.90
2018-06-23T21:13:08.628Z,99.90
2018-06-23T21:15:36.099Z,99.90
2018-06-23T21:18:03.104Z,99.90
2018-06-23T21:20:30.698Z,99.90
2018-06-23T21:22:57.777Z,99.90
2018-06-23T21:25:25.195Z,99.90
2018-06-23T21:27:52.159Z,99.90
2018-06-23T21:30:19.468Z,99.90
2018-06-23T21:32:46.411Z,99.90
2018-06-23T21:35:13.388Z,99.90
2018-06-23T21:37:40.407Z,99.90
2018-06-23T21:40:07.503Z,99.90
2018-06-23T21:42:34.439Z,99.90
2018-06-23T21:45:01.392Z,99.90
2018-06-23T21:47:28.379Z,99.90
2018-06-23T21:49:55.551Z,99.90
2018-06-23T21:52:22.534Z,99.90
2018-06-23T21:54:49.891Z,99.90
2018-06-23T21:57:16.933Z,99.90
2018-06-23T21:59:44.153Z,99.90
2018-06-23T22:02:11.133Z,99.90
2018-06-23T22:04:38.156Z,99.90
2018-06-23T22:07:05.115Z,99.90
2018-06-23T22:09:32.096Z,99.90
2018-06-23T22:11:59.307Z,99.90
2018-06-23T22:14:26.222Z,99.90
2018-06-23T22:16:53.713Z,99.90
2018-06-23T22:19:20.768Z,99.90
2018-06-23T22:21:47.706Z,99.90
2018-06-23T22:24:14.685Z,99.90
2018-06-23T22:26:41.891Z,99.90
2018-06-23T22:29:08.853Z,99.90
2018-06-23T22:31:36.634Z,99.90
2018-06-23T22:34:03.636Z,99.90
2018-06-23T22:36:30.592Z,99.90
2018-06-23T22:38:57.679Z,99.90
2018-06-23T22:41:24.753Z,99.90
2018-06-23T22:43:51.901Z,99.90
2018-06-23T22:48:45.982Z,99.90
2018-06-23T22:51:12.944Z,99.90
2018-06-23T22:53:40.127Z,99.90
2018-06-23T22:56:07.243Z,99.90
2018-06-23T22:58:34.224Z,99.90
2018-06-23T23:01:01.264Z,99.90
2018-06-23T23:03:28.356Z,99.90
2018-06-23T23:05:55.374Z,99.90
2018-06-23T23:08:22.811Z,99.90
2018-06-23T23:10:49.810Z,99.90
2018-06-23T23:13:16.735Z,99.90
2018-06-23T23:15:43.923Z,99.90
2018-06-23T23:18:10.920Z,99.90
2018-06-23T23:20:38.134Z,99.90
2018-06-23T23:23:05.258Z,99.90
2018-06-23T23:25:32.311Z,99.90
2018-06-23T23:28:00.239Z,99.90
2018-06-23T23:30:27.214Z,99.90
2018-06-23T23:32:54.181Z,99.90
2018-06-23T23:35:21.191Z,99.90
2018-06-23T23:37:48.149Z,99.90
2018-06-23T23:40:15.132Z,99.90
2018-06-23T23:42:42.259Z,99.90
2018-06-23T23:45:09.273Z,99.90
2018-06-23T23:50:09.937Z,99.90
2018-06-23T23:52:36.896Z,99.90
2018-06-23T23:55:03.880Z,99.90
2018-06-23T23:57:31.260Z,99.90
2018-06-23T23:59:58.213Z,99.90
